createdAt,value
2023-03-01T00:01:40.183Z,-0.44
2023-03-01T00:04:07.817Z,-0.28
2023-03-01T00:06:35.492Z,-0.22
2023-03-01T00:09:03.275Z,-0.26
2023-03-01T00:11:33.477Z,-0.16
2023-03-01T00:14:02.815Z,-0.28
2023-03-01T00:16:34.549Z,-0.30
2023-03-01T00:19:02.615Z,-0.22
2023-03-01T00:21:30.859Z,-0.30
2023-03-01T00:23:59.307Z,-0.23
2023-03-01T00:26:28.219Z,-0.11
2023-03-01T00:28:57.212Z,-0.02
2023-03-01T00:31:26.852Z,-0.08
2023-03-01T00:33:57.921Z,-0.02
2023-03-01T00:36:27.332Z,0.07
2023-03-01T00:38:55.358Z,0.15
2023-03-01T00:41:24.407Z,0.09
2023-03-01T00:43:52.650Z,0.22
2023-03-01T00:46:22.698Z,0.24
2023-03-01T00:48:50.610Z,0.26
2023-03-01T00:51:22.067Z,0.23
2023-03-01T00:53:52.601Z,0.16
2023-03-01T00:56:20.657Z,0.25
2023-03-01T00:58:48.445Z,0.18
2023-03-01T01:01:21.612Z,0.13
2023-03-01T01:03:52.154Z,0.20
2023-03-01T01:06:23.872Z,0.11
2023-03-01T01:08:52.541Z,0.08
2023-03-01T01:11:20.826Z,0.11
2023-03-01T01:13:49.319Z,0.10
2023-03-01T01:16:19.405Z,0.17
2023-03-01T01:18:47.892Z,-0.03
2023-03-01T01:21:18.898Z,0.11
2023-03-01T01:23:48.788Z,0.12
2023-03-01T01:26:18.648Z,0.06
2023-03-01T01:28:46.664Z,0.13
2023-03-01T01:31:14.980Z,0.03
2023-03-01T01:33:43.020Z,-0.10
2023-03-01T01:36:11.290Z,0.04
2023-03-01T01:38:40.134Z,0.12
2023-03-01T01:41:09.145Z,0.05
2023-03-01T01:43:38.881Z,-0.01
2023-03-01T01:46:09.051Z,-0.03
2023-03-01T01:48:42.968Z,0.00
2023-03-01T01:51:14.788Z,-0.02
2023-03-01T01:53:44.737Z,-0.19
2023-03-01T01:56:14.645Z,-0.02
2023-03-01T01:58:44.434Z,-0.20
2023-03-01T02:01:13.203Z,-0.13
2023-03-01T02:03:44.574Z,-0.15
2023-03-01T02:06:20.215Z,-0.26
2023-03-01T02:08:50.697Z,-0.13
2023-03-01T02:11:20.965Z,-0.11
2023-03-01T02:13:50.099Z,0.02
2023-03-01T02:16:18.452Z,-0.06
2023-03-01T02:18:46.699Z,0.04
2023-03-01T02:21:30.857Z,0.01
2023-03-01T02:24:00.009Z,-0.03
2023-03-01T02:26:38.823Z,-0.15
2023-03-01T02:29:08.401Z,-0.22
2023-03-01T02:31:45.822Z,-0.25
2023-03-01T02:34:16.299Z,-0.33
2023-03-01T02:36:49.367Z,-0.42
2023-03-01T02:39:20.570Z,-0.47
2023-03-01T02:41:52.390Z,-0.49
2023-03-01T02:44:21.590Z,-0.45
2023-03-01T02:46:52.159Z,-0.75
2023-03-01T02:49:23.403Z,-0.76
2023-03-01T02:52:09.165Z,-0.70
2023-03-01T02:54:42.787Z,-0.73
2023-03-01T02:57:12.523Z,-0.71
2023-03-01T02:59:43.509Z,-0.75
2023-03-01T03:02:36.675Z,-0.89
2023-03-01T03:05:11.867Z,-0.75
2023-03-01T03:07:42.283Z,-0.78
2023-03-01T03:10:13.093Z,-0.77
2023-03-01T03:12:41.343Z,-0.78
2023-03-01T03:15:13.562Z,-0.78
2023-03-01T03:17:45.291Z,-0.74
2023-03-01T03:20:19.754Z,-0.74
2023-03-01T03:22:48.103Z,-0.91
2023-03-01T03:25:16.061Z,-0.82
2023-03-01T03:27:45.840Z,-0.74
2023-03-01T03:30:17.831Z,-0.79
2023-03-01T03:32:52.991Z,-0.78
2023-03-01T03:35:21.962Z,-0.77
2023-03-01T03:38:06.954Z,-0.66
2023-03-01T03:40:36.508Z,-0.56
2023-03-01T03:43:05.015Z,-0.60
2023-03-01T03:45:34.662Z,-0.58
2023-03-01T03:48:02.598Z,-0.66
2023-03-01T03:50:31.453Z,-0.76
2023-03-01T03:53:01.848Z,-0.53
2023-03-01T03:55:31.606Z,-0.48
2023-03-01T03:58:03.092Z,-0.57
2023-03-01T04:00:31.124Z,-0.53
2023-03-01T04:03:00.409Z,-0.44
2023-03-01T04:05:28.897Z,-0.37
2023-03-01T04:08:08.044Z,-0.47
2023-03-01T04:10:38.091Z,-0.46
2023-03-01T04:13:05.845Z,-0.87
2023-03-01T04:15:34.546Z,-0.42
2023-03-01T04:18:03.818Z,-0.31
2023-03-01T04:20:34.546Z,-0.35
2023-03-01T04:23:11.347Z,-0.67
2023-03-01T04:25:40.570Z,-0.60
2023-03-01T04:28:08.633Z,-0.46
2023-03-01T04:30:37.132Z,-0.28
2023-03-01T04:33:08.611Z,-0.31
2023-03-01T04:35:37.603Z,-0.32
2023-03-01T04:38:05.544Z,-0.30
2023-03-01T04:40:34.059Z,-0.34
2023-03-01T04:43:02.267Z,-0.43
2023-03-01T04:45:30.102Z,-0.44
2023-03-01T04:47:59.125Z,-0.41
2023-03-01T04:50:28.221Z,-0.51
2023-03-01T04:52:59.330Z,-0.59
2023-03-01T04:55:28.186Z,-0.57
2023-03-01T04:57:56.550Z,-0.67
2023-03-01T05:00:25.295Z,-0.58
2023-03-01T05:02:57.819Z,-0.52
2023-03-01T05:05:29.449Z,-0.63
2023-03-01T05:07:58.931Z,-0.62
2023-03-01T05:10:27.550Z,-0.64
2023-03-01T05:12:55.319Z,-0.64
2023-03-01T05:15:26.400Z,-0.57
2023-03-01T05:17:55.155Z,-0.66
2023-03-01T05:20:24.727Z,-0.18
2023-03-01T05:22:56.470Z,-0.27
2023-03-01T05:25:24.439Z,-0.02
2023-03-01T05:27:52.382Z,-0.02
2023-03-01T05:30:20.567Z,0.10
2023-03-01T05:32:50.286Z,0.02
2023-03-01T05:35:20.106Z,-0.05
2023-03-01T05:37:49.919Z,-0.32
2023-03-01T05:40:21.613Z,-0.06
2023-03-01T05:42:51.164Z,-0.04
2023-03-01T05:45:19.548Z,-0.10
2023-03-01T05:47:48.972Z,0.03
2023-03-01T05:50:19.872Z,-0.05
2023-03-01T05:52:49.298Z,0.01
2023-03-01T05:55:19.513Z,-0.13
2023-03-01T05:57:47.872Z,-0.42
2023-03-01T06:00:17.408Z,0.01
2023-03-01T06:02:45.457Z,0.07
2023-03-01T06:05:14.723Z,0.02
2023-03-01T06:07:43.050Z,0.29
2023-03-01T06:10:12.228Z,0.28
2023-03-01T06:12:43.022Z,0.16
2023-03-01T06:15:12.433Z,-0.02
2023-03-01T06:17:42.521Z,0.16
2023-03-01T06:20:12.922Z,0.13
2023-03-01T06:22:41.051Z,0.55
2023-03-01T06:25:10.056Z,0.43
2023-03-01T06:27:37.981Z,0.48
2023-03-01T06:30:11.502Z,0.46
2023-03-01T06:32:42.976Z,0.49
2023-03-01T06:35:11.990Z,0.41
2023-03-01T06:37:39.994Z,1.89
2023-03-01T06:40:09.912Z,1.35
2023-03-01T06:42:37.837Z,1.57
2023-03-01T06:45:09.008Z,1.61
2023-03-01T06:47:36.949Z,1.05
2023-03-01T06:50:05.254Z,1.18
2023-03-01T06:52:33.168Z,0.88
2023-03-01T06:55:01.223Z,0.68
2023-03-01T06:57:29.552Z,0.94
2023-03-01T06:59:57.191Z,1.02
2023-03-01T07:02:26.258Z,0.94
2023-03-01T07:04:54.058Z,1.08
2023-03-01T07:07:21.702Z,0.83
2023-03-01T07:09:51.284Z,1.08
2023-03-01T07:12:18.949Z,1.17
2023-03-01T07:14:46.613Z,1.31
2023-03-01T07:17:14.357Z,1.36
2023-03-01T07:19:43.369Z,1.19
2023-03-01T07:22:11.023Z,1.35
2023-03-01T07:24:38.673Z,1.57
2023-03-01T07:27:06.296Z,1.75
2023-03-01T07:29:34.141Z,1.83
2023-03-01T07:32:01.912Z,1.82
2023-03-01T07:34:29.809Z,1.89
2023-03-01T07:36:58.758Z,1.90
2023-03-01T07:39:26.411Z,1.78
2023-03-01T07:41:54.220Z,1.90
2023-03-01T07:44:23.605Z,2.10
2023-03-01T07:46:53.335Z,2.07
2023-03-01T07:49:21.289Z,2.09
2023-03-01T07:51:48.918Z,2.08
2023-03-01T07:54:18.937Z,2.22
2023-03-01T07:56:46.618Z,2.18
2023-03-01T07:59:14.605Z,2.07
2023-03-01T08:01:42.313Z,2.40
2023-03-01T08:04:10.472Z,2.22
2023-03-01T08:06:38.393Z,2.60
2023-03-01T08:09:06.060Z,2.62
2023-03-01T08:11:35.077Z,2.55
2023-03-01T08:14:02.758Z,2.82
2023-03-01T08:16:31.093Z,2.79
2023-03-01T08:19:02.419Z,2.87
2023-03-01T08:21:30.093Z,2.94
2023-03-01T08:23:57.647Z,2.86
2023-03-01T08:26:25.252Z,2.88
2023-03-01T08:28:54.441Z,3.12
2023-03-01T08:31:24.141Z,3.07
2023-03-01T08:33:56.869Z,3.38
2023-03-01T08:36:25.561Z,3.25
2023-03-01T08:38:53.705Z,3.22
2023-03-01T08:41:21.624Z,3.35
2023-03-01T08:43:49.262Z,3.43
2023-03-01T08:46:18.690Z,3.42
2023-03-01T08:48:46.378Z,3.56
2023-03-01T08:51:18.433Z,3.77
2023-03-01T08:53:46.807Z,3.44
2023-03-01T08:56:15.214Z,3.73
2023-03-01T08:58:46.164Z,3.99
2023-03-01T09:01:16.771Z,3.73
2023-03-01T09:03:46.384Z,3.90
2023-03-01T09:06:14.800Z,3.92
2023-03-01T09:08:44.233Z,3.91
2023-03-01T09:11:16.817Z,4.13
2023-03-01T09:13:44.667Z,4.33
2023-03-01T09:16:15.092Z,4.34
2023-03-01T09:18:43.085Z,4.48
2023-03-01T09:21:14.666Z,4.57
2023-03-01T09:23:44.409Z,4.82
2023-03-01T09:26:15.424Z,4.50
2023-03-01T09:28:43.041Z,4.63
2023-03-01T09:31:10.842Z,4.59
2023-03-01T09:33:38.721Z,4.58
2023-03-01T09:36:08.394Z,4.60
2023-03-01T09:38:37.430Z,4.30
2023-03-01T09:41:12.596Z,4.18
2023-03-01T09:43:47.564Z,4.32
2023-03-01T09:46:17.586Z,4.65
2023-03-01T09:48:50.773Z,4.89
2023-03-01T09:51:21.491Z,4.98
2023-03-01T09:53:50.506Z,5.12
2023-03-01T09:56:23.323Z,5.23
2023-03-01T09:58:58.729Z,5.35
2023-03-01T10:01:33.728Z,5.47
2023-03-01T10:04:12.205Z,5.72
2023-03-01T10:06:43.741Z,5.70
2023-03-01T10:09:15.858Z,5.89
2023-03-01T10:11:47.398Z,6.02
2023-03-01T10:14:31.462Z,5.97
2023-03-01T10:17:03.797Z,6.28
2023-03-01T10:19:34.200Z,6.27
2023-03-01T10:22:06.064Z,6.22
2023-03-01T10:24:38.140Z,6.50
2023-03-01T10:27:11.019Z,6.48
2023-03-01T10:29:46.159Z,6.49
2023-03-01T10:32:14.187Z,6.15
2023-03-01T10:34:42.119Z,6.24
2023-03-01T10:37:15.381Z,6.29
2023-03-01T10:40:00.725Z,6.48
2023-03-01T10:42:31.364Z,6.29
2023-03-01T10:45:00.303Z,6.41
2023-03-01T10:47:29.694Z,6.92
2023-03-01T10:50:03.255Z,6.91
2023-03-01T10:52:37.158Z,6.79
2023-03-01T10:55:27.104Z,6.77
2023-03-01T10:58:09.023Z,7.05
2023-03-01T11:00:48.805Z,7.15
2023-03-01T11:03:21.920Z,7.01
2023-03-01T11:06:06.743Z,7.23
2023-03-01T11:08:37.455Z,7.59
2023-03-01T11:11:26.589Z,7.09
2023-03-01T11:13:57.443Z,7.52
2023-03-01T11:16:28.974Z,6.96
2023-03-01T11:19:01.819Z,7.52
2023-03-01T11:21:34.214Z,7.36
2023-03-01T11:24:03.673Z,7.70
2023-03-01T11:26:38.021Z,7.42
2023-03-01T11:29:12.050Z,7.78
2023-03-01T11:31:56.813Z,7.62
2023-03-01T11:34:38.127Z,7.46
2023-03-01T11:37:15.571Z,7.45
2023-03-01T11:39:48.894Z,7.61
2023-03-01T11:42:22.594Z,8.03
2023-03-01T11:44:54.220Z,8.12
2023-03-01T11:47:34.777Z,8.28
2023-03-01T11:50:20.252Z,8.38
2023-03-01T11:53:03.605Z,8.04
2023-03-01T11:55:47.722Z,7.77
2023-03-01T11:58:29.108Z,7.65
2023-03-01T12:01:06.499Z,8.06
2023-03-01T12:03:50.033Z,8.13
2023-03-01T12:06:31.571Z,8.14
2023-03-01T12:09:29.153Z,8.19
2023-03-01T12:12:14.666Z,8.04
2023-03-01T12:14:57.417Z,8.58
2023-03-01T12:17:41.981Z,8.16
2023-03-01T12:20:20.356Z,8.46
2023-03-01T12:23:14.733Z,8.54
2023-03-01T12:25:55.210Z,8.47
2023-03-01T12:28:54.165Z,8.65
2023-03-01T12:32:09.064Z,8.70
2023-03-01T12:34:54.692Z,8.23
2023-03-01T12:37:37.880Z,8.46
2023-03-01T12:40:25.572Z,8.77
2023-03-01T12:43:04.831Z,8.53
2023-03-01T12:45:45.857Z,8.70
2023-03-01T12:48:40.508Z,8.81
2023-03-01T12:51:12.659Z,8.86
2023-03-01T12:53:44.373Z,9.04
2023-03-01T12:56:14.097Z,8.72
2023-03-01T12:58:50.628Z,8.58
2023-03-01T13:01:28.464Z,8.60
2023-03-01T13:04:23.352Z,8.71
2023-03-01T13:07:00.452Z,8.69
2023-03-01T13:09:36.946Z,9.14
2023-03-01T13:12:13.037Z,8.95
2023-03-01T13:14:48.379Z,9.06
2023-03-01T13:17:47.296Z,9.36
2023-03-01T13:20:21.033Z,9.52
2023-03-01T13:22:54.602Z,9.67
2023-03-01T13:25:27.652Z,9.84
2023-03-01T13:28:44.397Z,9.91
2023-03-01T13:31:32.749Z,9.69
2023-03-01T13:34:01.611Z,9.54
2023-03-01T13:36:50.407Z,9.34
2023-03-01T13:39:36.572Z,9.18
2023-03-01T13:42:04.458Z,9.36
2023-03-01T13:44:36.767Z,9.25
2023-03-01T13:47:16.620Z,9.62
2023-03-01T13:49:47.481Z,9.64
2023-03-01T13:52:40.184Z,9.62
2023-03-01T13:55:19.037Z,9.85
2023-03-01T13:57:54.538Z,9.83
2023-03-01T14:00:31.458Z,9.74
2023-03-01T14:03:06.387Z,9.53
2023-03-01T14:05:34.802Z,9.87
2023-03-01T14:08:03.988Z,9.43
2023-03-01T14:10:43.927Z,9.63
2023-03-01T14:13:26.896Z,9.86
2023-03-01T14:16:15.286Z,9.91
2023-03-01T14:18:50.023Z,9.79
2023-03-01T14:21:17.941Z,9.79
2023-03-01T14:23:48.473Z,10.03
2023-03-01T14:26:22.791Z,9.89
2023-03-01T14:28:52.601Z,9.53
2023-03-01T14:31:52.011Z,9.77
2023-03-01T14:34:23.036Z,9.65
2023-03-01T14:36:51.060Z,9.96
2023-03-01T14:39:24.856Z,9.94
2023-03-01T14:41:53.025Z,9.96
2023-03-01T14:44:25.431Z,9.60
2023-03-01T14:46:58.036Z,9.79
2023-03-01T14:49:29.034Z,9.49
2023-03-01T14:52:01.623Z,9.55
2023-03-01T14:54:39.557Z,9.39
2023-03-01T14:57:07.557Z,9.81
2023-03-01T14:59:36.212Z,9.78
2023-03-01T15:02:04.505Z,9.52
2023-03-01T15:04:34.700Z,9.50
2023-03-01T15:07:05.716Z,9.41
2023-03-01T15:09:38.213Z,9.68
2023-03-01T15:12:35.411Z,9.57
2023-03-01T15:15:05.046Z,9.85
2023-03-01T15:17:35.327Z,9.68
2023-03-01T15:20:05.000Z,9.69
2023-03-01T15:22:32.910Z,9.72
2023-03-01T15:25:02.018Z,9.50
2023-03-01T15:27:29.762Z,9.48
2023-03-01T15:30:01.275Z,9.49
2023-03-01T15:32:31.534Z,9.24
2023-03-01T15:34:59.704Z,9.36
2023-03-01T15:37:49.427Z,9.26
2023-03-01T15:40:25.475Z,9.33
2023-03-01T15:42:53.536Z,9.40
2023-03-01T15:45:28.343Z,9.26
2023-03-01T15:47:59.082Z,9.26
2023-03-01T15:50:29.423Z,9.09
2023-03-01T15:52:58.235Z,9.13
2023-03-01T15:55:30.626Z,9.09
2023-03-01T15:58:03.113Z,9.15
2023-03-01T16:00:30.903Z,8.73
2023-03-01T16:02:58.657Z,8.94
2023-03-01T16:05:29.398Z,8.90
2023-03-01T16:07:57.107Z,8.90
2023-03-01T16:10:25.856Z,8.86
2023-03-01T16:12:55.568Z,8.74
2023-03-01T16:15:25.282Z,8.52
2023-03-01T16:17:52.996Z,8.71
2023-03-01T16:20:30.018Z,8.68
2023-03-01T16:23:01.360Z,8.56
2023-03-01T16:25:30.098Z,8.45
2023-03-01T16:28:01.031Z,8.49
2023-03-01T16:30:28.971Z,8.43
2023-03-01T16:32:56.591Z,8.30
2023-03-01T16:35:24.599Z,8.23
2023-03-01T16:37:53.582Z,8.00
2023-03-01T16:40:23.702Z,7.98
2023-03-01T16:42:51.862Z,7.94
2023-03-01T16:45:28.972Z,7.79
2023-03-01T16:47:56.864Z,7.50
2023-03-01T16:50:24.630Z,7.44
2023-03-01T16:52:52.304Z,7.30
2023-03-01T16:55:20.235Z,7.22
2023-03-01T16:57:47.916Z,7.13
2023-03-01T17:00:16.486Z,6.97
2023-03-01T17:02:45.752Z,6.94
2023-03-01T17:05:13.681Z,6.92
2023-03-01T17:07:41.730Z,6.70
2023-03-01T17:10:12.050Z,6.58
2023-03-01T17:12:40.130Z,6.23
2023-03-01T17:15:08.735Z,6.25
2023-03-01T17:17:36.602Z,6.11
2023-03-01T17:20:06.536Z,5.94
2023-03-01T17:22:34.282Z,5.96
2023-03-01T17:25:02.117Z,5.78
2023-03-01T17:27:29.902Z,5.56
2023-03-01T17:29:57.640Z,5.28
2023-03-01T17:32:25.483Z,5.11
2023-03-01T17:34:53.230Z,4.92
2023-03-01T17:37:22.654Z,4.69
2023-03-01T17:39:50.399Z,4.58
2023-03-01T17:42:18.255Z,4.41
2023-03-01T17:44:45.956Z,4.25
2023-03-01T17:47:13.677Z,4.21
2023-03-01T17:49:41.366Z,4.08
2023-03-01T17:52:09.166Z,4.01
2023-03-01T17:54:38.250Z,3.91
2023-03-01T17:57:05.903Z,3.70
2023-03-01T17:59:34.027Z,3.67
2023-03-01T18:02:02.041Z,3.60
2023-03-01T18:04:30.386Z,3.55
2023-03-01T18:06:59.010Z,3.51
2023-03-01T18:09:28.352Z,3.46
2023-03-01T18:11:57.499Z,3.33
2023-03-01T18:14:25.890Z,3.24
2023-03-01T18:16:53.603Z,3.10
2023-03-01T18:19:21.207Z,3.02
2023-03-01T18:21:48.820Z,2.98
2023-03-01T18:24:16.483Z,2.78
2023-03-01T18:26:44.094Z,2.76
2023-03-01T18:29:13.074Z,2.75
2023-03-01T18:31:40.767Z,2.66
2023-03-01T18:34:08.403Z,2.67
2023-03-01T18:36:37.477Z,2.58
2023-03-01T18:39:07.425Z,2.58
2023-03-01T18:41:36.545Z,2.59
2023-03-01T18:44:05.496Z,2.49
2023-03-01T18:46:37.769Z,2.50
2023-03-01T18:49:05.842Z,2.26
2023-03-01T18:51:35.410Z,2.49
2023-03-01T18:54:03.341Z,2.44
2023-03-01T18:56:34.373Z,2.40
2023-03-01T18:59:03.921Z,2.40
2023-03-01T19:01:37.024Z,2.38
2023-03-01T19:04:06.293Z,2.29
2023-03-01T19:06:35.491Z,2.24
2023-03-01T19:09:03.751Z,2.27
2023-03-01T19:11:33.178Z,2.35
2023-03-01T19:14:01.600Z,2.31
2023-03-01T19:16:31.697Z,2.20
2023-03-01T19:19:03.215Z,2.24
2023-03-01T19:21:33.053Z,2.33
2023-03-01T19:24:02.984Z,2.31
2023-03-01T19:26:32.094Z,2.12
2023-03-01T19:29:00.140Z,2.31
2023-03-01T19:31:30.610Z,2.25
2023-03-01T19:34:10.504Z,2.34
2023-03-01T19:36:42.412Z,2.61
2023-03-01T19:39:11.156Z,2.78
2023-03-01T19:41:38.785Z,2.93
2023-03-01T19:44:07.361Z,3.04
2023-03-01T19:46:35.781Z,3.23
2023-03-01T19:49:03.806Z,3.39
2023-03-01T19:51:33.197Z,3.60
2023-03-01T19:54:02.391Z,3.82
2023-03-01T19:56:31.328Z,4.19
2023-03-01T19:59:04.026Z,4.30
2023-03-01T20:01:32.988Z,4.34
2023-03-01T20:04:00.939Z,3.97
2023-03-01T20:06:30.150Z,3.96
2023-03-01T20:08:59.585Z,4.07
2023-03-01T20:11:31.714Z,4.38
2023-03-01T20:13:59.481Z,4.06
2023-03-01T20:16:27.238Z,4.06
2023-03-01T20:18:55.208Z,4.05
2023-03-01T20:21:24.970Z,3.85
2023-03-01T20:23:53.637Z,3.95
2023-03-01T20:26:23.026Z,4.00
2023-03-01T20:28:54.745Z,4.37
2023-03-01T20:31:29.524Z,4.30
2023-03-01T20:33:58.407Z,4.34
2023-03-01T20:36:27.024Z,4.25
2023-03-01T20:38:54.699Z,4.16
2023-03-01T20:41:25.860Z,4.05
2023-03-01T20:43:56.878Z,4.23
2023-03-01T20:46:26.514Z,4.32
2023-03-01T20:48:54.652Z,4.06
2023-03-01T20:51:22.490Z,4.36
2023-03-01T20:53:50.362Z,4.18
2023-03-01T20:56:19.072Z,4.25
2023-03-01T20:59:05.194Z,4.07
2023-03-01T21:01:33.481Z,4.11
2023-03-01T21:04:01.215Z,4.17
2023-03-01T21:06:29.203Z,4.17
2023-03-01T21:08:57.688Z,4.07
2023-03-01T21:11:25.903Z,4.04
2023-03-01T21:13:53.610Z,4.11
2023-03-01T21:16:23.302Z,3.97
2023-03-01T21:18:51.018Z,4.25
2023-03-01T21:21:21.692Z,4.20
2023-03-01T21:23:49.762Z,4.04
2023-03-01T21:26:19.738Z,3.96
2023-03-01T21:28:48.345Z,4.05
2023-03-01T21:31:18.046Z,3.99
2023-03-01T21:33:48.711Z,3.83
2023-03-01T21:36:17.150Z,3.95
2023-03-01T21:38:47.012Z,3.98
2023-03-01T21:41:16.231Z,3.92
2023-03-01T21:43:45.388Z,3.94
2023-03-01T21:46:15.453Z,3.74
2023-03-01T21:48:45.680Z,3.92
2023-03-01T21:51:16.817Z,3.95
2023-03-01T21:53:45.246Z,3.80
2023-03-01T21:56:17.206Z,3.88
2023-03-01T21:58:45.282Z,3.83
2023-03-01T22:01:15.225Z,3.90
2023-03-01T22:03:45.983Z,3.91
2023-03-01T22:06:19.637Z,3.84
2023-03-01T22:08:49.268Z,3.93
2023-03-01T22:11:17.887Z,3.93
2023-03-01T22:13:47.474Z,3.94
2023-03-01T22:16:15.129Z,3.98
2023-03-01T22:18:42.964Z,4.00
2023-03-01T22:21:11.074Z,4.04
2023-03-01T22:23:40.856Z,3.97
2023-03-01T22:26:09.778Z,3.67
2023-03-01T22:28:37.539Z,4.07
2023-03-01T22:31:06.206Z,4.14
2023-03-01T22:33:33.942Z,4.04
2023-03-01T22:36:01.628Z,3.84
2023-03-01T22:38:29.354Z,3.64
2023-03-01T22:40:59.786Z,3.67
2023-03-01T22:43:28.649Z,3.72
2023-03-01T22:45:56.436Z,3.59
2023-03-01T22:48:25.035Z,3.58
2023-03-01T22:50:53.573Z,3.52
2023-03-01T22:53:21.214Z,3.76
2023-03-01T22:55:48.866Z,3.63
2023-03-01T22:58:17.901Z,3.68
2023-03-01T23:00:45.553Z,3.45
2023-03-01T23:03:13.372Z,3.55
2023-03-01T23:05:41.102Z,3.56
2023-03-01T23:08:08.745Z,3.50
2023-03-01T23:10:41.523Z,3.33
2023-03-01T23:13:09.314Z,3.39
2023-03-01T23:15:44.738Z,3.48
2023-03-01T23:18:13.161Z,3.31
2023-03-01T23:20:40.822Z,3.46
2023-03-01T23:23:09.033Z,3.28
2023-03-01T23:25:36.750Z,3.32
2023-03-01T23:28:04.835Z,3.26
2023-03-01T23:30:32.514Z,3.07
2023-03-01T23:33:01.530Z,3.13
2023-03-01T23:35:29.236Z,3.28
2023-03-01T23:37:56.960Z,3.27
2023-03-01T23:40:24.656Z,3.14
2023-03-01T23:42:52.314Z,3.15
2023-03-01T23:45:19.979Z,3.16
2023-03-01T23:47:47.604Z,3.32
2023-03-01T23:50:16.829Z,3.24
2023-03-01T23:52:44.579Z,3.34
2023-03-01T23:55:12.455Z,3.35
2023-03-01T23:57:40.114Z,3.11
